Time;durP1;ratioP1;P1;durP2;ratioP2;P2;SDS_P1;SDS_P2;PMS_P1;PMS_P2;Temp;Humidity;BMP_temperature;BMP_pressure;BME280_temperature;BME280_humidity;BME280_pressure;Samples;Min_cycle;Max_cycle;Signal;HPM_P1;HPM_P2
2023/09/14 00:01:00;;;;;;;19.20;17.17;;;;;;;;;;5031540;28;20115;-60
2023/09/14 00:03:26;;;;;;;18.98;16.98;;;;;;;;;;5031368;28;20024;-60
2023/09/14 00:05:52;;;;;;;19.45;17.30;;;;;;;;;;5031438;28;20022;-60
2023/09/14 00:08:19;;;;;;;19.77;17.23;;;;;;;;;;5031523;28;20025;-60
2023/09/14 00:10:46;;;;;;;19.48;17.48;;;;;;;;;;5013480;28;20098;-60
2023/09/14 00:13:12;;;;;;;19.30;17.50;;;;;;;;;;5013250;28;20391;-61
2023/09/14 00:15:41;;;;;;;20.48;18.42;;;;;;;;;;5028516;28;20037;-60
2023/09/14 00:18:07;;;;;;;20.77;18.70;;;;;;;;;;5028295;28;20191;-60
2023/09/14 00:20:34;;;;;;;20.27;18.13;;;;;;;;;;5031009;28;20060;-60
2023/09/14 00:23:00;;;;;;;21.48;19.02;;;;;;;;;;5031217;28;20384;-60
2023/09/14 00:25:26;;;;;;;21.90;19.42;;;;;;;;;;5031113;28;20025;-60
2023/09/14 00:27:53;;;;;;;19.73;17.65;;;;;;;;;;5024199;28;20030;-60
2023/09/14 00:30:20;;;;;;;21.23;18.38;;;;;;;;;;5026848;28;20025;-61
2023/09/14 00:32:47;;;;;;;20.00;17.90;;;;;;;;;;5031132;28;20036;-61
2023/09/14 00:35:14;;;;;;;21.73;19.42;;;;;;;;;;5031304;28;20057;-60
2023/09/14 00:37:41;;;;;;;21.90;18.50;;;;;;;;;;5031314;28;20034;-61
2023/09/14 00:40:07;;;;;;;20.63;18.42;;;;;;;;;;5016345;28;20437;-60
2023/09/14 00:42:43;;;;;;;20.38;18.30;;;;;;;;;;5034947;28;20109;-60
2023/09/14 00:45:10;;;;;;;22.60;20.30;;;;;;;;;;5016971;28;20033;-60
2023/09/14 00:47:36;;;;;;;21.52;19.25;;;;;;;;;;5034737;28;20034;-60
2023/09/14 00:50:04;;;;;;;21.98;18.83;;;;;;;;;;5034831;28;20026;-60
2023/09/14 00:52:30;;;;;;;22.08;19.65;;;;;;;;;;5034507;28;20033;-60
2023/09/14 00:54:57;;;;;;;21.33;19.08;;;;;;;;;;5034557;28;20041;-60
2023/09/14 00:57:23;;;;;;;21.75;19.60;;;;;;;;;;5034538;28;20025;-60
2023/09/14 00:59:49;;;;;;;22.25;19.95;;;;;;;;;;5034480;28;20436;-60
2023/09/14 01:02:15;;;;;;;20.90;18.60;;;;;;;;;;5034219;28;20026;-60
2023/09/14 01:04:41;;;;;;;23.10;19.05;;;;;;;;;;5033615;28;20026;-60
2023/09/14 01:07:08;;;;;;;22.55;20.15;;;;;;;;;;5033527;28;20036;-60
2023/09/14 01:09:47;;;;;;;22.25;18.88;;;;;;;;;;5034172;28;20045;-60
2023/09/14 01:12:14;;;;;;;20.95;18.75;;;;;;;;;;5020519;28;20100;-60
2023/09/14 01:14:40;;;;;;;22.95;20.63;;;;;;;;;;5033592;28;20041;-60
2023/09/14 01:17:10;;;;;;;21.75;19.55;;;;;;;;;;5034089;28;20383;-60
2023/09/14 01:19:43;;;;;;;23.33;20.90;;;;;;;;;;5034388;28;20056;-60
2023/09/14 01:22:22;;;;;;;24.33;21.58;;;;;;;;;;5033881;28;20120;-60
2023/09/14 01:24:58;;;;;;;22.65;20.25;;;;;;;;;;5033927;28;20034;-60
2023/09/14 01:27:24;;;;;;;25.10;20.45;;;;;;;;;;5033894;28;20017;-60
2023/09/14 01:29:50;;;;;;;23.27;20.88;;;;;;;;;;5034049;28;20021;-60
2023/09/14 01:32:16;;;;;;;24.70;21.88;;;;;;;;;;5033978;28;20420;-60
2023/09/14 01:34:42;;;;;;;23.45;20.98;;;;;;;;;;5033512;28;20037;-60
2023/09/14 01:37:08;;;;;;;23.67;21.00;;;;;;;;;;5033071;28;20037;-60
2023/09/14 01:39:56;;;;;;;25.33;20.95;;;;;;;;;;5033587;28;20021;-60
2023/09/14 01:42:23;;;;;;;23.63;21.23;;;;;;;;;;5033525;28;20025;-60
2023/09/14 01:44:50;;;;;;;23.55;21.15;;;;;;;;;;5028579;28;20029;-60
2023/09/14 01:47:16;;;;;;;24.23;21.63;;;;;;;;;;5024600;28;20021;-60
2023/09/14 01:49:43;;;;;;;24.13;21.10;;;;;;;;;;5033349;28;20021;-60
2023/09/14 01:52:09;;;;;;;22.33;19.98;;;;;;;;;;5032674;28;20029;-60
2023/09/14 01:54:35;;;;;;;24.58;21.90;;;;;;;;;;5033357;28;20060;-60
2023/09/14 01:57:01;;;;;;;24.77;22.13;;;;;;;;;;5033602;28;20029;-60
2023/09/14 01:59:27;;;;;;;23.92;21.30;;;;;;;;;;5033127;28;20116;-60
2023/09/14 02:01:53;;;;;;;25.08;22.38;;;;;;;;;;5015361;28;20025;-60
2023/09/14 02:04:19;;;;;;;24.73;22.13;;;;;;;;;;5033185;28;20032;-60
2023/09/14 02:09:52;;;;;;;24.05;21.05;;;;;;;;;;5029265;28;20376;-60
2023/09/14 02:12:18;;;;;;;23.95;21.45;;;;;;;;;;5031788;28;20112;-60
2023/09/14 02:14:44;;;;;;;24.90;22.25;;;;;;;;;;5032903;28;20033;-60
2023/09/14 02:17:10;;;;;;;22.38;20.15;;;;;;;;;;5032977;28;20091;-60
2023/09/14 02:19:36;;;;;;;22.27;19.92;;;;;;;;;;5030907;28;20033;-60
2023/09/14 02:22:02;;;;;;;22.58;20.25;;;;;;;;;;5030220;28;20496;-60
2023/09/14 02:24:28;;;;;;;22.20;19.83;;;;;;;;;;5031616;28;20022;-60
2023/09/14 02:26:54;;;;;;;22.48;20.17;;;;;;;;;;5031379;28;20052;-60
2023/09/14 02:29:21;;;;;;;27.20;21.83;;;;;;;;;;5032482;28;20021;-60
2023/09/14 02:31:47;;;;;;;22.58;19.88;;;;;;;;;;5032783;28;20030;-60
2023/09/14 02:34:13;;;;;;;23.60;20.17;;;;;;;;;;5032608;28;20044;-60
2023/09/14 02:36:39;;;;;;;23.33;20.83;;;;;;;;;;5032877;28;20060;-60
2023/09/14 02:39:05;;;;;;;22.88;20.08;;;;;;;;;;5032686;28;20072;-60
2023/09/14 02:41:31;;;;;;;23.52;20.65;;;;;;;;;;5032700;28;20022;-60
2023/09/14 02:43:58;;;;;;;22.85;20.35;;;;;;;;;;5014436;28;20426;-59
2023/09/14 02:46:24;;;;;;;23.90;21.35;;;;;;;;;;5032345;28;20021;-60
2023/09/14 02:48:50;;;;;;;27.88;23.25;;;;;;;;;;5032553;28;20032;-59
2023/09/14 02:51:16;;;;;;;25.75;23.08;;;;;;;;;;5032143;28;20359;-60
2023/09/14 02:53:42;;;;;;;24.98;22.10;;;;;;;;;;5032540;28;20045;-60
2023/09/14 02:56:12;;;;;;;26.63;21.85;;;;;;;;;;5032302;28;20171;-60
2023/09/14 02:58:38;;;;;;;25.50;22.73;;;;;;;;;;5032554;28;20549;-60
2023/09/14 03:01:10;;;;;;;25.15;21.92;;;;;;;;;;5032021;28;20021;-60
2023/09/14 03:03:37;;;;;;;25.67;22.98;;;;;;;;;;5014212;28;20352;-60
2023/09/14 03:06:03;;;;;;;27.02;22.27;;;;;;;;;;5032037;28;20108;-60
2023/09/14 03:08:29;;;;;;;23.48;20.98;;;;;;;;;;5014252;28;20175;-60
2023/09/14 03:10:56;;;;;;;24.55;21.95;;;;;;;;;;5032354;28;20120;-60
2023/09/14 03:13:22;;;;;;;23.70;21.30;;;;;;;;;;5013960;28;20025;-60
2023/09/14 03:15:52;;;;;;;25.83;21.63;;;;;;;;;;5032008;28;20100;-60
2023/09/14 03:18:18;;;;;;;23.92;21.13;;;;;;;;;;5032047;28;20033;-60
2023/09/14 03:20:50;;;;;;;23.60;21.25;;;;;;;;;;5031797;28;20068;-60
2023/09/14 03:23:16;;;;;;;23.35;20.85;;;;;;;;;;5031670;28;20146;-60
2023/09/14 03:25:42;;;;;;;22.55;19.90;;;;;;;;;;5032222;28;20045;-59
2023/09/14 03:28:09;;;;;;;24.92;21.10;;;;;;;;;;5031826;28;20026;-59
2023/09/14 03:30:38;;;;;;;26.20;21.70;;;;;;;;;;5031927;28;20100;-60
2023/09/14 03:33:04;;;;;;;24.00;20.23;;;;;;;;;;5013866;28;20041;-60
2023/09/14 03:35:30;;;;;;;21.88;19.52;;;;;;;;;;5023344;28;20471;-60
2023/09/14 03:37:56;;;;;;;21.67;19.45;;;;;;;;;;5031908;28;20026;-60
2023/09/14 03:40:22;;;;;;;22.35;19.92;;;;;;;;;;5031886;28;20030;-60
2023/09/14 03:42:49;;;;;;;26.75;20.58;;;;;;;;;;5013665;28;20328;-60
2023/09/14 03:45:15;;;;;;;23.77;19.73;;;;;;;;;;5031619;28;20093;-60
2023/09/14 03:47:41;;;;;;;21.38;19.05;;;;;;;;;;5029230;28;20060;-60
2023/09/14 03:50:09;;;;;;;23.25;20.25;;;;;;;;;;5031861;28;20034;-60
2023/09/14 03:52:35;;;;;;;28.10;22.58;;;;;;;;;;5031354;28;20026;-60
2023/09/14 03:55:01;;;;;;;22.02;19.85;;;;;;;;;;5013787;28;20069;-60
2023/09/14 03:57:28;;;;;;;23.10;20.27;;;;;;;;;;5031670;28;20029;-60
2023/09/14 03:59:54;;;;;;;23.63;20.90;;;;;;;;;;5031427;28;20103;-60
2023/09/14 04:02:20;;;;;;;21.83;19.38;;;;;;;;;;5013481;28;20129;-60
2023/09/14 04:04:46;;;;;;;25.95;21.25;;;;;;;;;;5013537;28;20501;-60
2023/09/14 04:07:12;;;;;;;25.48;21.17;;;;;;;;;;5031558;28;20045;-60
2023/09/14 04:09:41;;;;;;;22.02;19.73;;;;;;;;;;5031236;28;20021;-60
2023/09/14 04:12:08;;;;;;;24.55;21.00;;;;;;;;;;5013354;28;20053;-60
2023/09/14 04:14:34;;;;;;;25.70;19.60;;;;;;;;;;5033486;28;20037;-60
2023/09/14 04:17:01;;;;;;;25.95;20.58;;;;;;;;;;5035210;28;20014;-60
2023/09/14 04:19:28;;;;;;;23.45;20.13;;;;;;;;;;5035505;28;20034;-60
2023/09/14 04:21:54;;;;;;;22.63;19.75;;;;;;;;;;5034948;28;20100;-61
2023/09/14 04:24:20;;;;;;;24.50;20.50;;;;;;;;;;5017310;28;20033;-61
2023/09/14 04:26:46;;;;;;;24.27;19.17;;;;;;;;;;5017185;28;20465;-60
2023/09/14 04:29:12;;;;;;;20.85;18.50;;;;;;;;;;5035037;28;20057;-60
2023/09/14 04:31:39;;;;;;;22.88;18.83;;;;;;;;;;5034992;28;20072;-61
2023/09/14 04:34:05;;;;;;;26.85;23.38;;;;;;;;;;5021138;28;20030;-60
2023/09/14 04:36:31;;;;;;;28.77;20.58;;;;;;;;;;5033147;28;20128;-60
2023/09/14 04:38:57;;;;;;;27.13;20.20;;;;;;;;;;5033823;28;20160;-60
2023/09/14 04:41:23;;;;;;;26.63;21.42;;;;;;;;;;5034823;28;20018;-60
2023/09/14 04:43:49;;;;;;;24.08;21.02;;;;;;;;;;5034582;28;20116;-60
2023/09/14 04:46:15;;;;;;;28.48;20.35;;;;;;;;;;5034688;28;20025;-60
2023/09/14 04:48:42;;;;;;;28.23;21.08;;;;;;;;;;5034674;28;20040;-60
2023/09/14 04:51:08;;;;;;;28.23;20.50;;;;;;;;;;5016818;28;20033;-60
2023/09/14 04:53:34;;;;;;;26.90;20.17;;;;;;;;;;5034477;28;20479;-60
2023/09/14 04:56:00;;;;;;;25.25;20.17;;;;;;;;;;5034387;28;20364;-60
2023/09/14 04:58:27;;;;;;;23.55;20.05;;;;;;;;;;5034566;28;20095;-60
2023/09/14 05:00:53;;;;;;;25.50;20.05;;;;;;;;;;5034656;28;20040;-61
2023/09/14 05:03:19;;;;;;;21.92;18.38;;;;;;;;;;5025728;28;20398;-61
2023/09/14 05:05:52;;;;;;;23.27;18.40;;;;;;;;;;5030223;28;20100;-60
2023/09/14 05:08:18;;;;;;;25.92;19.23;;;;;;;;;;5034422;28;20120;-61
2023/09/14 05:10:44;;;;;;;25.38;20.05;;;;;;;;;;5034513;28;20108;-60
2023/09/14 05:13:10;;;;;;;25.75;19.80;;;;;;;;;;5016279;28;20025;-60
2023/09/14 05:15:36;;;;;;;24.65;19.50;;;;;;;;;;5034188;28;20029;-60
2023/09/14 05:18:02;;;;;;;23.85;20.77;;;;;;;;;;5034375;28;20022;-60
2023/09/14 05:20:28;;;;;;;25.55;20.98;;;;;;;;;;5012444;28;20080;-61
2023/09/14 05:22:54;;;;;;;24.08;19.83;;;;;;;;;;5030956;28;20021;-60
2023/09/14 05:25:20;;;;;;;25.17;19.55;;;;;;;;;;5032644;28;20410;-60
2023/09/14 05:27:46;;;;;;;27.23;22.58;;;;;;;;;;5034040;28;20052;-60
2023/09/14 05:30:12;;;;;;;23.38;20.15;;;;;;;;;;5033995;28;20032;-60
2023/09/14 05:32:39;;;;;;;22.90;20.05;;;;;;;;;;5033912;28;20026;-61
2023/09/14 05:35:09;;;;;;;25.30;20.58;;;;;;;;;;5033710;28;20037;-61
2023/09/14 05:37:35;;;;;;;23.55;20.45;;;;;;;;;;5025849;28;20513;-60
2023/09/14 05:40:08;;;;;;;23.80;21.08;;;;;;;;;;5033904;28;20132;-60
2023/09/14 05:42:37;;;;;;;27.88;19.52;;;;;;;;;;5032740;28;20014;-60
2023/09/14 05:45:03;;;;;;;25.20;20.45;;;;;;;;;;5026864;28;20027;-60
2023/09/14 05:47:29;;;;;;;21.95;19.65;;;;;;;;;;5033349;28;20025;-60
2023/09/14 05:49:55;;;;;;;24.05;19.00;;;;;;;;;;5027275;28;20028;-60
2023/09/14 05:52:21;;;;;;;24.00;19.88;;;;;;;;;;5031975;28;20028;-61
2023/09/14 05:54:47;;;;;;;25.17;19.35;;;;;;;;;;5031637;28;20064;-61
2023/09/14 05:57:14;;;;;;;22.20;18.08;;;;;;;;;;5032779;28;20455;-60
2023/09/14 05:59:40;;;;;;;23.88;20.08;;;;;;;;;;5033587;28;20044;-60
2023/09/14 06:02:06;;;;;;;22.88;19.73;;;;;;;;;;5015473;28;20063;-60
2023/09/14 06:04:32;;;;;;;25.05;18.10;;;;;;;;;;5033162;28;20080;-60
2023/09/14 06:06:58;;;;;;;26.08;19.05;;;;;;;;;;5033292;28;20502;-60
2023/09/14 06:09:26;;;;;;;23.92;18.75;;;;;;;;;;5033059;28;20026;-60
2023/09/14 06:11:52;;;;;;;22.67;18.25;;;;;;;;;;5015383;28;20075;-60
2023/09/14 06:14:18;;;;;;;23.30;19.38;;;;;;;;;;5033153;28;20115;-60
2023/09/14 06:16:44;;;;;;;24.38;18.15;;;;;;;;;;5032956;28;20421;-60
2023/09/14 06:19:10;;;;;;;24.52;18.35;;;;;;;;;;5033312;28;20171;-60
2023/09/14 06:21:36;;;;;;;22.90;17.65;;;;;;;;;;5030478;28;20144;-61
2023/09/14 06:24:02;;;;;;;19.73;17.73;;;;;;;;;;5032987;28;20079;-61
2023/09/14 06:26:29;;;;;;;21.33;18.33;;;;;;;;;;5032853;28;20108;-60
2023/09/14 06:28:58;;;;;;;21.42;18.30;;;;;;;;;;5032916;28;20359;-60
2023/09/14 06:31:24;;;;;;;22.98;17.95;;;;;;;;;;5032794;28;20071;-60
2023/09/14 06:33:50;;;;;;;22.05;17.30;;;;;;;;;;5032710;28;20175;-61
2023/09/14 06:36:18;;;;;;;24.17;17.65;;;;;;;;;;5032516;28;20130;-60
2023/09/14 06:38:45;;;;;;;22.00;16.60;;;;;;;;;;5032820;28;20022;-60
2023/09/14 06:41:12;;;;;;;19.83;17.73;;;;;;;;;;5032748;28;20021;-60
2023/09/14 06:43:39;;;;;;;19.65;17.55;;;;;;;;;;5032535;28;20030;-60
2023/09/14 06:46:05;;;;;;;18.17;16.08;;;;;;;;;;5032461;28;20104;-60
2023/09/14 06:48:31;;;;;;;23.63;16.02;;;;;;;;;;5032629;28;20017;-60
2023/09/14 06:50:58;;;;;;;17.15;15.35;;;;;;;;;;5032506;28;20105;-60
2023/09/14 06:53:24;;;;;;;19.67;16.15;;;;;;;;;;5032341;28;20041;-60
2023/09/14 06:55:50;;;;;;;22.90;17.10;;;;;;;;;;5014668;28;20073;-60
2023/09/14 06:58:16;;;;;;;21.73;17.58;;;;;;;;;;5032440;28;20029;-61
2023/09/14 07:00:42;;;;;;;17.58;15.27;;;;;;;;;;5032214;28;20028;-60
2023/09/14 07:03:08;;;;;;;21.60;15.35;;;;;;;;;;5032087;28;20447;-58
2023/09/14 07:05:35;;;;;;;19.83;15.32;;;;;;;;;;5032029;28;20036;-58
2023/09/14 07:08:01;;;;;;;18.90;16.73;;;;;;;;;;5032091;28;20033;-58
2023/09/14 07:10:27;;;;;;;18.55;14.82;;;;;;;;;;5032277;28;20021;-58
2023/09/14 07:12:53;;;;;;;18.13;14.30;;;;;;;;;;5031540;28;20022;-58
2023/09/14 07:15:19;;;;;;;22.10;15.38;;;;;;;;;;5032023;28;20033;-64
2023/09/14 07:17:46;;;;;;;16.90;14.15;;;;;;;;;;5031807;28;20030;-63
2023/09/14 07:20:12;;;;;;;15.70;13.55;;;;;;;;;;5032087;28;20075;-63
2023/09/14 07:22:38;;;;;;;15.18;13.57;;;;;;;;;;5032088;28;20056;-64
2023/09/14 07:25:08;;;;;;;14.80;12.77;;;;;;;;;;5031853;28;20474;-64
2023/09/14 07:27:36;;;;;;;16.55;14.73;;;;;;;;;;5032165;28;20125;-64
2023/09/14 07:30:03;;;;;;;19.58;15.30;;;;;;;;;;5031839;28;20026;-64
2023/09/14 07:32:29;;;;;;;17.08;15.25;;;;;;;;;;5030444;28;20148;-64
2023/09/14 07:34:57;;;;;;;16.20;13.13;;;;;;;;;;5030722;28;20462;-65
2023/09/14 07:37:23;;;;;;;16.13;13.23;;;;;;;;;;5032374;28;20013;-64
2023/09/14 07:39:49;;;;;;;16.55;12.43;;;;;;;;;;5031736;28;20033;-64
2023/09/14 07:42:15;;;;;;;14.48;13.07;;;;;;;;;;5031400;28;20036;-64
2023/09/14 07:44:41;;;;;;;15.02;13.45;;;;;;;;;;5031612;28;20458;-63
2023/09/14 07:47:07;;;;;;;16.92;12.98;;;;;;;;;;5031676;28;20025;-64
2023/09/14 07:49:33;;;;;;;15.80;10.27;;;;;;;;;;5030703;28;20018;-64
2023/09/14 07:51:59;;;;;;;12.43;10.95;;;;;;;;;;5013630;28;20153;-64
2023/09/14 07:54:25;;;;;;;11.90;8.13;;;;;;;;;;5021814;28;20079;-65
2023/09/14 07:56:51;;;;;;;9.80;8.77;;;;;;;;;;5029813;28;20439;-64
2023/09/14 07:59:17;;;;;;;13.52;9.50;;;;;;;;;;5013763;28;20076;-64
2023/09/14 08:01:43;;;;;;;12.23;10.55;;;;;;;;;;5031192;28;20053;-64
2023/09/14 08:04:09;;;;;;;12.98;10.70;;;;;;;;;;5031816;28;20072;-64
2023/09/14 08:06:35;;;;;;;10.55;9.45;;;;;;;;;;5031280;28;20026;-64
2023/09/14 08:09:02;;;;;;;9.63;8.57;;;;;;;;;;5031411;28;20075;-64
2023/09/14 08:11:28;;;;;;;11.73;10.50;;;;;;;;;;5031540;28;20026;-64
2023/09/14 08:13:54;;;;;;;8.68;7.88;;;;;;;;;;5031168;28;20054;-65
2023/09/14 08:16:20;;;;;;;11.60;10.35;;;;;;;;;;5031518;28;20025;-65
2023/09/14 08:18:47;;;;;;;13.38;10.93;;;;;;;;;;5031428;28;20408;-65
2023/09/14 08:21:13;;;;;;;11.45;9.02;;;;;;;;;;5031160;28;20041;-65
2023/09/14 08:23:39;;;;;;;10.13;9.02;;;;;;;;;;5031194;28;20525;-65
2023/09/14 08:26:06;;;;;;;10.35;9.25;;;;;;;;;;5031269;28;20068;-65
2023/09/14 08:28:32;;;;;;;10.15;9.15;;;;;;;;;;5031511;28;20029;-65
2023/09/14 08:30:58;;;;;;;9.45;8.20;;;;;;;;;;5031159;28;20424;-65
2023/09/14 08:33:24;;;;;;;10.70;8.93;;;;;;;;;;5031057;28;20145;-65
2023/09/14 08:35:50;;;;;;;10.07;8.50;;;;;;;;;;5031161;28;20451;-65
2023/09/14 08:38:17;;;;;;;11.32;10.15;;;;;;;;;;5031271;28;20105;-65
2023/09/14 08:40:45;;;;;;;12.68;10.88;;;;;;;;;;5031113;28;20022;-65
2023/09/14 08:43:13;;;;;;;12.48;9.27;;;;;;;;;;5031002;28;20017;-65
2023/09/14 08:45:39;;;;;;;9.77;8.68;;;;;;;;;;5020559;28;20072;-65
2023/09/14 08:48:12;;;;;;;8.80;7.90;;;;;;;;;;5031076;28;20455;-65
2023/09/14 08:50:40;;;;;;;8.35;7.50;;;;;;;;;;5013487;28;20340;-65
2023/09/14 08:53:06;;;;;;;8.90;8.02;;;;;;;;;;5031074;28;20018;-65
2023/09/14 08:55:34;;;;;;;8.10;7.25;;;;;;;;;;5030924;28;20109;-65
2023/09/14 08:58:01;;;;;;;14.05;8.48;;;;;;;;;;5013199;28;20051;-65
2023/09/14 09:00:28;;;;;;;7.90;7.10;;;;;;;;;;5033093;28;20106;-65
2023/09/14 09:02:54;;;;;;;10.68;7.55;;;;;;;;;;5034415;28;20513;-65
2023/09/14 09:05:21;;;;;;;7.65;6.88;;;;;;;;;;5034497;28;20029;-65
2023/09/14 09:07:48;;;;;;;10.88;7.47;;;;;;;;;;5034644;28;20553;-65
2023/09/14 09:10:21;;;;;;;9.25;8.35;;;;;;;;;;5034327;28;20026;-65
2023/09/14 09:12:49;;;;;;;8.80;7.97;;;;;;;;;;5034439;28;20014;-65
2023/09/14 09:15:15;;;;;;;8.85;8.05;;;;;;;;;;5034103;28;20033;-65
2023/09/14 09:17:41;;;;;;;9.80;7.25;;;;;;;;;;5034326;28;20057;-65
2023/09/14 09:20:16;;;;;;;7.47;6.88;;;;;;;;;;5034222;28;20029;-65
2023/09/14 09:22:46;;;;;;;10.57;9.48;;;;;;;;;;5031463;28;20092;-65
2023/09/14 09:25:12;;;;;;;11.13;8.90;;;;;;;;;;5030980;28;20026;-65
2023/09/14 09:27:39;;;;;;;9.98;8.57;;;;;;;;;;5032236;28;20052;-65
2023/09/14 09:30:05;;;;;;;10.57;8.85;;;;;;;;;;5033488;28;20032;-65
2023/09/14 09:32:31;;;;;;;12.32;9.32;;;;;;;;;;5033759;28;20106;-65
2023/09/14 09:35:00;;;;;;;13.40;9.65;;;;;;;;;;5033587;28;20117;-65
2023/09/14 09:37:27;;;;;;;11.93;8.95;;;;;;;;;;5033732;28;20024;-65
2023/09/14 09:39:54;;;;;;;9.57;8.40;;;;;;;;;;5034135;28;20039;-65
2023/09/14 09:42:20;;;;;;;9.93;8.80;;;;;;;;;;5033785;28;20155;-65
2023/09/14 09:44:47;;;;;;;9.05;8.00;;;;;;;;;;5033850;28;20055;-65
2023/09/14 09:47:13;;;;;;;11.13;8.60;;;;;;;;;;5034235;28;20112;-65
2023/09/14 09:49:39;;;;;;;9.05;8.15;;;;;;;;;;5027785;28;20057;-65
2023/09/14 09:52:09;;;;;;;8.80;7.90;;;;;;;;;;5032260;28;20013;-65
2023/09/14 09:54:35;;;;;;;8.50;7.68;;;;;;;;;;5032292;28;20076;-66
2023/09/14 09:57:04;;;;;;;7.80;7.07;;;;;;;;;;5016234;28;20029;-65
2023/09/14 09:59:30;;;;;;;8.55;7.60;;;;;;;;;;5034020;28;20108;-65
2023/09/14 10:01:57;;;;;;;9.68;6.50;;;;;;;;;;5033906;28;20115;-65
2023/09/14 10:04:28;;;;;;;7.75;6.95;;;;;;;;;;5033652;28;20037;-65
2023/09/14 10:06:55;;;;;;;6.88;5.95;;;;;;;;;;5033511;28;20505;-65
2023/09/14 10:09:24;;;;;;;10.90;9.80;;;;;;;;;;5033357;28;20025;-65
2023/09/14 10:11:51;;;;;;;11.55;9.32;;;;;;;;;;5032575;28;20032;-65
2023/09/14 10:14:19;;;;;;;8.85;7.30;;;;;;;;;;5033276;28;20029;-65
2023/09/14 10:16:45;;;;;;;8.15;7.00;;;;;;;;;;5033322;28;20060;-65
2023/09/14 10:19:12;;;;;;;8.77;7.88;;;;;;;;;;5033231;28;20474;-65
2023/09/14 10:21:42;;;;;;;9.43;8.52;;;;;;;;;;5033414;28;20092;-65
2023/09/14 10:24:08;;;;;;;9.93;8.93;;;;;;;;;;5015276;28;20133;-65
2023/09/14 10:26:36;;;;;;;9.88;8.98;;;;;;;;;;5033152;28;20021;-65
2023/09/14 10:29:05;;;;;;;9.75;8.88;;;;;;;;;;5033072;28;20021;-65
2023/09/14 10:31:31;;;;;;;11.02;8.48;;;;;;;;;;5032981;28;20071;-64
2023/09/14 10:33:59;;;;;;;11.65;9.20;;;;;;;;;;5032934;28;20052;-64
2023/09/14 10:36:28;;;;;;;11.07;8.00;;;;;;;;;;5032996;28;20020;-65
2023/09/14 10:38:55;;;;;;;10.63;9.55;;;;;;;;;;5032879;28;20026;-65
2023/09/14 10:41:22;;;;;;;8.98;8.02;;;;;;;;;;5032456;28;20360;-65
2023/09/14 10:43:48;;;;;;;9.75;8.40;;;;;;;;;;5032682;28;20025;-64
2023/09/14 10:46:17;;;;;;;9.65;8.55;;;;;;;;;;5033015;28;20035;-65
2023/09/14 10:48:43;;;;;;;8.90;8.05;;;;;;;;;;5014947;28;20451;-64
2023/09/14 10:51:11;;;;;;;8.23;7.25;;;;;;;;;;5032343;28;20056;-64
2023/09/14 10:53:39;;;;;;;8.43;7.60;;;;;;;;;;5032679;28;20037;-64
2023/09/14 10:56:05;;;;;;;9.98;7.05;;;;;;;;;;5032579;28;20091;-64
2023/09/14 10:58:41;;;;;;;8.25;7.55;;;;;;;;;;5032552;28;20025;-64
2023/09/14 11:01:10;;;;;;;7.28;6.63;;;;;;;;;;5032382;28;20032;-64
2023/09/14 11:03:55;;;;;;;7.55;6.85;;;;;;;;;;5032128;28;20026;-64
2023/09/14 11:06:41;;;;;;;9.77;8.40;;;;;;;;;;5032607;28;20068;-64
2023/09/14 11:09:07;;;;;;;8.32;7.63;;;;;;;;;;5032377;28;20033;-64
2023/09/14 11:11:39;;;;;;;8.68;7.78;;;;;;;;;;5032086;28;20369;-64
2023/09/14 11:14:10;;;;;;;9.05;8.15;;;;;;;;;;5032139;28;20083;-64
2023/09/14 11:16:44;;;;;;;14.07;10.45;;;;;;;;;;5032106;28;20026;-64
2023/09/14 11:19:10;;;;;;;;;;;;;;;;;;5032829;28;20471;-64
2023/09/14 11:21:36;;;;;;;14.02;9.48;;;;;;;;;;5031905;28;19917;-64
2023/09/14 11:24:03;;;;;;;10.38;8.52;;;;;;;;;;5014354;28;20383;-64
2023/09/14 11:26:32;;;;;;;9.82;8.93;;;;;;;;;;5032183;28;20361;-64
2023/09/14 11:28:59;;;;;;;8.32;7.53;;;;;;;;;;5026330;28;20106;-64
2023/09/14 11:31:32;;;;;;;8.40;7.70;;;;;;;;;;5032020;28;20026;-64
2023/09/14 11:33:58;;;;;;;9.98;8.60;;;;;;;;;;5031776;28;20029;-64
2023/09/14 11:36:30;;;;;;;10.45;9.40;;;;;;;;;;5031875;28;20144;-64
2023/09/14 11:38:56;;;;;;;11.18;8.05;;;;;;;;;;5031812;28;20036;-64
2023/09/14 11:41:41;;;;;;;8.02;7.32;;;;;;;;;;5031692;28;20505;-64
2023/09/14 11:44:07;;;;;;;11.55;9.10;;;;;;;;;;5031622;28;20494;-64
2023/09/14 11:46:37;;;;;;;9.25;8.55;;;;;;;;;;5031807;28;20036;-64
2023/09/14 11:49:04;;;;;;;9.63;8.18;;;;;;;;;;5031775;28;20132;-64
2023/09/14 11:51:30;;;;;;;10.77;9.77;;;;;;;;;;5031780;28;20159;-64
2023/09/14 11:53:57;;;;;;;12.45;11.35;;;;;;;;;;5031285;28;20044;-64
2023/09/14 11:56:25;;;;;;;14.52;12.20;;;;;;;;;;5031498;28;20471;-64
2023/09/14 11:58:51;;;;;;;10.80;9.77;;;;;;;;;;5031678;28;20028;-64
2023/09/14 12:01:18;;;;;;;11.20;10.07;;;;;;;;;;5031364;28;20025;-64
2023/09/14 12:03:44;;;;;;;12.60;11.30;;;;;;;;;;5031787;28;20527;-64
2023/09/14 12:06:10;;;;;;;10.30;9.40;;;;;;;;;;5031709;28;20108;-64
2023/09/14 12:08:45;;;;;;;10.15;9.15;;;;;;;;;;5031893;28;20077;-64
2023/09/14 12:11:11;;;;;;;12.73;9.02;;;;;;;;;;5030369;28;20096;-61
2023/09/14 12:13:38;;;;;;;9.65;8.82;;;;;;;;;;5029848;28;20117;-62
2023/09/14 12:16:04;;;;;;;10.00;9.10;;;;;;;;;;5030725;28;20033;-62
2023/09/14 12:18:43;;;;;;;10.75;8.82;;;;;;;;;;5031619;28;20044;-61
2023/09/14 12:21:09;;;;;;;10.52;8.43;;;;;;;;;;5031135;28;20352;-61
2023/09/14 12:23:39;;;;;;;8.80;8.00;;;;;;;;;;5031236;28;20394;-61
2023/09/14 12:26:06;;;;;;;9.10;8.13;;;;;;;;;;5008133;28;20026;-61
2023/09/14 12:28:33;;;;;;;8.98;7.68;;;;;;;;;;5027320;28;20116;-61
2023/09/14 12:30:59;;;;;;;9.55;8.63;;;;;;;;;;5021911;28;20129;-62
2023/09/14 12:33:26;;;;;;;9.85;8.88;;;;;;;;;;5003762;28;20120;-62
2023/09/14 12:35:52;;;;;;;10.13;9.13;;;;;;;;;;5033482;28;20057;-62
2023/09/14 12:38:18;;;;;;;12.13;10.90;;;;;;;;;;5035009;28;20029;-62
2023/09/14 12:40:45;;;;;;;12.90;11.55;;;;;;;;;;5034854;28;20079;-62
2023/09/14 12:43:11;;;;;;;12.00;11.00;;;;;;;;;;5034771;28;20036;-61
2023/09/14 12:45:37;;;;;;;10.98;10.00;;;;;;;;;;5035052;28;20072;-62
2023/09/14 12:48:04;;;;;;;10.75;9.85;;;;;;;;;;5034714;28;20052;-62
2023/09/14 12:50:30;;;;;;;12.93;11.63;;;;;;;;;;5035023;28;20077;-61
2023/09/14 12:52:57;;;;;;;11.50;10.40;;;;;;;;;;5034663;28;20053;-61
2023/09/14 12:55:27;;;;;;;11.40;10.30;;;;;;;;;;5016113;28;20068;-60
2023/09/14 12:57:54;;;;;;;11.27;10.13;;;;;;;;;;5029961;28;20018;-61
2023/09/14 13:00:24;;;;;;;9.60;8.75;;;;;;;;;;5030364;28;20079;-61
2023/09/14 13:02:51;;;;;;;9.60;8.70;;;;;;;;;;5015099;28;20414;-61
2023/09/14 13:05:20;;;;;;;12.20;9.95;;;;;;;;;;5032692;28;20017;-61
2023/09/14 13:07:50;;;;;;;9.98;8.95;;;;;;;;;;5034365;28;20096;-61
2023/09/14 13:10:22;;;;;;;12.77;11.60;;;;;;;;;;5021394;28;20017;-61
2023/09/14 13:12:53;;;;;;;12.80;11.52;;;;;;;;;;5034155;28;20033;-61
2023/09/14 13:15:22;;;;;;;12.05;10.95;;;;;;;;;;5034415;28;20048;-60
2023/09/14 13:17:49;;;;;;;13.27;11.45;;;;;;;;;;5034188;28;20100;-61
2023/09/14 13:20:15;;;;;;;11.68;10.55;;;;;;;;;;5034238;28;20036;-60
2023/09/14 13:22:41;;;;;;;9.35;8.55;;;;;;;;;;5033851;28;20502;-60
2023/09/14 13:25:07;;;;;;;9.55;8.77;;;;;;;;;;5033920;28;20036;-61
2023/09/14 13:27:35;;;;;;;9.75;8.75;;;;;;;;;;5034085;28;20363;-61
2023/09/14 13:30:06;;;;;;;8.23;7.60;;;;;;;;;;5034193;28;20034;-60
2023/09/14 13:32:35;;;;;;;7.75;7.05;;;;;;;;;;5034138;28;20018;-61
2023/09/14 13:35:03;;;;;;;9.35;8.55;;;;;;;;;;5033790;28;20030;-60
2023/09/14 13:37:30;;;;;;;8.10;7.28;;;;;;;;;;5015866;28;20052;-61
2023/09/14 13:39:55;;;;;;;8.80;8.00;;;;;;;;;;5032068;28;20452;-61
2023/09/14 13:42:22;;;;;;;8.73;7.97;;;;;;;;;;5033103;28;20049;-61
2023/09/14 13:44:48;;;;;;;7.82;7.22;;;;;;;;;;5033504;28;20033;-61
2023/09/14 13:47:14;;;;;;;8.45;7.75;;;;;;;;;;5032344;28;20025;-61
2023/09/14 13:49:40;;;;;;;7.85;7.05;;;;;;;;;;5033499;28;20080;-61
2023/09/14 13:52:06;;;;;;;7.85;7.15;;;;;;;;;;5015600;28;20537;-61
2023/09/14 13:54:32;;;;;;;7.38;6.68;;;;;;;;;;5033683;28;20030;-61
2023/09/14 13:56:58;;;;;;;9.48;7.07;;;;;;;;;;5015652;28;20026;-62
2023/09/14 13:59:25;;;;;;;10.05;8.27;;;;;;;;;;5033471;28;20420;-61
2023/09/14 14:01:52;;;;;;;7.72;7.00;;;;;;;;;;5033452;28;20033;-62
2023/09/14 14:04:17;;;;;;;8.15;7.50;;;;;;;;;;5033428;28;20060;-61
2023/09/14 14:06:45;;;;;;;7.05;6.40;;;;;;;;;;5033467;28;20472;-62
2023/09/14 14:09:11;;;;;;;6.28;5.78;;;;;;;;;;5032672;28;20459;-61
2023/09/14 14:11:37;;;;;;;6.78;5.63;;;;;;;;;;5031236;28;20029;-62
2023/09/14 14:14:03;;;;;;;7.60;6.78;;;;;;;;;;5030683;28;20029;-61
2023/09/14 14:16:29;;;;;;;7.57;6.88;;;;;;;;;;5031033;28;20025;-61
2023/09/14 14:18:55;;;;;;;6.32;5.82;;;;;;;;;;5030783;28;20029;-61
2023/09/14 14:21:21;;;;;;;7.97;7.15;;;;;;;;;;5027514;28;20487;-61
2023/09/14 14:23:47;;;;;;;6.78;6.07;;;;;;;;;;5017189;28;20021;-61
2023/09/14 14:26:14;;;;;;;6.75;6.05;;;;;;;;;;5028171;28;20029;-62
2023/09/14 14:28:39;;;;;;;6.03;5.63;;;;;;;;;;5029703;28;20025;-61